ADDS TAF Board (Experimental) INFO Settings
IDs: Format: Expanded Condensed

KMIA - Miami Intl, FL, US

Issued at 0142 UTC 26 May 2016
Updated at: 0245 UTC 26 May 2016
Time0153Z 26/03Z 26/04Z 26/05Z 26/06Z 26/07Z 26/08Z 26/09Z 26/10Z 26/11Z 26/12Z 26/13Z 26/14Z 26/15Z
Type OBS PRVL PRVL PRVL PRVL PRVL PRVL PRVL PRVL PRVL PRVL PRVL PRVL PRVL
VIS 10 >6 >6 >6 >6 >6 >6 >6 >6 >6 >6 >6 >6 >6
CIG -- -- -- -- -- -- -- -- -- -- -- -- -- --
Cover CLR FEW FEW FEW FEW FEW FEW FEW FEW FEW FEW FEW SCT SCT
FltCat VFR VFR VFR VFR VFR VFR VFR VFR VFR VFR VFR VFR VFR VFR
WX -- -- -- -- -- -- -- -- -- -- -- -- -- --
WDir 50 60 60 60 60 60 60 60 60 60 60 60 70 70
WSpd 10 10 10 10 10 10 10 10 10 10 10 10 13 13
WGst -- -- -- -- -- -- -- -- -- -- -- -- -- --
R08/26
XWnd 6 5 5 5 5 5 5 5 5 5 5 5 4 4
HWnd 8 9 9 9 9 9 9 9 9 9 9 9 12 12
R09/27
XWnd 6 5 5 5 5 5 5 5 5 5 5 5 4 4
HWnd 8 9 9 9 9 9 9 9 9 9 9 9 12 12
R12/30
XWnd 9 9 9 9 9 9 9 9 9 9 9 9 10 10
HWnd 4 5 5 5 5 5 5 5 5 5 5 5 9 9

NOTE: TEMPO conditions in [brackets]. Keep in mind TEMPO conditions might be better (lower impact) than prevailing conditions.

Raw TAF
KMIA 260142Z 2602/2624 06010KT P6SM FEW030
  FM261400 07013KT P6SM SCT035


Raw METAR
KMIA 260153Z 05010KT 10SM CLR 26/17 A3014 RMK AO2 SLP204 T02560167
KMIA 260053Z 05011KT 10SM FEW030 FEW300 26/17 A3012 RMK AO2 SLP200 CB DSNT W T02610172
KMIA 252353Z 05010KT 10SM FEW035 FEW300 27/18 A3012 RMK AO2 SLP198 CB DSNT W T02670183 10294 20267 56002

METAR Board
Radar Display
Forecast Discussion

TAF Board Legend

Potential Impact
Threat None Slight Moderate High
Visibility (sm) ≥5.1 5.1>X≥3 3>X≥1 <1
Ceiling (100 ft) ≥30.1 30.1>X≥10 10>X≥5 <5
Wind Speed (kt) <10 10≤X<20 20≤X<30 ≥30
Wind Gust (kt) <15 15≤X<25 25≤X<35 ≥35
Weather No Wx Reported VCTS,-TS,-FZRA,SN TS,FZRA +TS,+FZRA,+SN